createdAt,value
2018-01-01T00:01:49.685Z,144.40
2018-01-01T00:04:16.073Z,301.67
2018-01-01T00:06:42.479Z,262.60
2018-01-01T00:09:09.602Z,170.53
2018-01-01T00:11:36.722Z,126.63
2018-01-01T00:14:03.141Z,99.50
2018-01-01T00:16:29.522Z,77.70
2018-01-01T00:18:56.613Z,76.20
2018-01-01T00:21:23.000Z,56.17
2018-01-01T00:23:50.864Z,53.17
2018-01-01T00:26:18.143Z,55.27
2018-01-01T00:28:44.525Z,49.67
2018-01-01T00:31:10.888Z,59.53
2018-01-01T00:33:37.998Z,42.50
2018-01-01T00:36:04.394Z,41.30
2018-01-01T00:38:30.803Z,62.40
2018-01-01T00:40:57.934Z,61.90
2018-01-01T00:43:24.321Z,85.77
2018-01-01T00:45:50.703Z,77.73
2018-01-01T00:48:17.889Z,66.97
2018-01-01T00:50:44.294Z,46.30
2018-01-01T00:53:11.420Z,41.10
2018-01-01T00:55:37.804Z,34.83
2018-01-01T00:58:04.191Z,42.83
2018-01-01T01:00:30.570Z,34.43
2018-01-01T01:02:56.967Z,33.87
2018-01-01T01:05:24.599Z,37.03
2018-01-01T01:07:51.042Z,32.13
2018-01-01T01:10:17.422Z,31.03
2018-01-01T01:12:43.811Z,29.53
2018-01-01T01:15:10.183Z,42.93
2018-01-01T01:17:36.566Z,37.20
2018-01-01T01:20:03.007Z,49.60
2018-01-01T01:22:29.399Z,53.57
2018-01-01T01:24:55.790Z,51.97
2018-01-01T01:27:22.991Z,54.87
2018-01-01T01:29:49.389Z,55.83
2018-01-01T01:32:16.506Z,50.27
2018-01-01T01:34:42.873Z,50.40
2018-01-01T01:37:09.261Z,47.30
2018-01-01T01:39:35.659Z,64.03
2018-01-01T01:42:02.037Z,45.70
2018-01-01T01:44:29.182Z,45.77
2018-01-01T01:46:55.605Z,36.83
2018-01-01T01:49:22.065Z,35.30
2018-01-01T01:51:49.210Z,44.17
2018-01-01T01:54:16.347Z,39.53
2018-01-01T01:56:42.734Z,59.23
2018-01-01T01:59:09.130Z,61.77
2018-01-01T02:01:36.327Z,56.67
2018-01-01T02:04:02.695Z,62.00
2018-01-01T02:06:29.063Z,76.43
2018-01-01T02:08:55.510Z,54.83
2018-01-01T02:11:21.940Z,54.10
2018-01-01T02:13:48.343Z,53.90
2018-01-01T02:16:15.486Z,59.07
2018-01-01T02:18:42.703Z,65.90
2018-01-01T02:21:09.075Z,57.03
2018-01-01T02:23:36.187Z,61.20
2018-01-01T02:26:02.573Z,51.73
2018-01-01T02:28:29.134Z,53.27
2018-01-01T02:30:55.526Z,63.33
2018-01-01T02:33:22.680Z,79.00
2018-01-01T02:35:49.816Z,83.17
2018-01-01T02:38:16.946Z,67.23
2018-01-01T02:40:43.316Z,81.00
2018-01-01T02:43:10.422Z,66.90
2018-01-01T02:45:36.807Z,69.57
2018-01-01T02:48:03.199Z,81.43
2018-01-01T02:50:29.582Z,50.43
2018-01-01T02:52:56.032Z,52.03
2018-01-01T02:55:22.394Z,58.10
2018-01-01T02:57:48.886Z,51.80
2018-01-01T03:00:15.266Z,50.43
2018-01-01T03:02:41.660Z,60.27
2018-01-01T03:05:08.053Z,52.30
2018-01-01T03:07:35.242Z,59.00
2018-01-01T03:10:01.719Z,76.67
2018-01-01T03:12:28.860Z,62.53
2018-01-01T03:14:55.215Z,71.63
2018-01-01T03:17:22.407Z,76.17
2018-01-01T03:19:48.777Z,109.07
2018-01-01T03:22:15.170Z,60.77
2018-01-01T03:24:41.560Z,51.07
2018-01-01T03:27:07.965Z,56.47
2018-01-01T03:29:34.326Z,59.17
2018-01-01T03:32:01.468Z,65.47
2018-01-01T03:34:28.609Z,62.67
2018-01-01T03:36:55.739Z,52.33
2018-01-01T03:39:22.134Z,52.77
2018-01-01T03:41:48.750Z,64.27
2018-01-01T03:44:15.121Z,57.80
2018-01-01T03:46:41.508Z,53.73
2018-01-01T03:49:08.654Z,58.20
2018-01-01T03:51:35.797Z,61.20
2018-01-01T03:54:02.932Z,58.30
2018-01-01T03:56:29.314Z,60.63
2018-01-01T03:58:55.709Z,65.53
2018-01-01T04:01:22.098Z,66.57
2018-01-01T04:03:48.484Z,46.57
2018-01-01T04:06:15.604Z,56.57
2018-01-01T04:08:42.000Z,55.23
2018-01-01T04:11:08.390Z,57.10
2018-01-01T04:13:35.543Z,51.73
2018-01-01T04:16:01.930Z,49.53
2018-01-01T04:18:28.309Z,49.83
2018-01-01T04:20:54.706Z,54.43
2018-01-01T04:23:21.191Z,49.40
2018-01-01T04:25:47.567Z,54.70
2018-01-01T04:28:13.942Z,51.87
2018-01-01T04:30:40.349Z,56.03
2018-01-01T04:33:07.481Z,66.10
2018-01-01T04:35:33.876Z,58.07
2018-01-01T04:38:00.241Z,58.03
2018-01-01T04:40:26.642Z,59.30
2018-01-01T04:42:53.152Z,54.43
2018-01-01T04:45:19.519Z,56.73
2018-01-01T04:47:45.916Z,49.80
2018-01-01T04:50:12.306Z,47.57
2018-01-01T04:52:38.679Z,71.87
2018-01-01T04:55:05.051Z,70.07
2018-01-01T04:57:31.451Z,78.50
2018-01-01T04:59:57.881Z,65.67
2018-01-01T05:02:24.316Z,60.07
2018-01-01T05:04:50.711Z,59.10
2018-01-01T05:07:17.395Z,56.40
2018-01-01T05:09:43.785Z,57.43
2018-01-01T05:12:10.919Z,75.00
2018-01-01T05:14:37.313Z,58.90
2018-01-01T05:17:03.694Z,59.60
2018-01-01T05:19:30.818Z,70.17
2018-01-01T05:21:57.203Z,62.20
2018-01-01T05:24:24.334Z,61.27
2018-01-01T05:26:51.526Z,52.20
2018-01-01T05:29:17.936Z,54.90
2018-01-01T05:31:44.329Z,53.47
2018-01-01T05:34:10.709Z,54.30
2018-01-01T05:36:37.102Z,50.77
2018-01-01T05:39:04.257Z,53.43
2018-01-01T05:41:30.683Z,51.80
2018-01-01T05:43:58.539Z,57.60
2018-01-01T05:46:25.010Z,63.07
2018-01-01T05:48:51.472Z,51.57
2018-01-01T05:51:17.918Z,58.40
2018-01-01T05:53:44.304Z,56.33
2018-01-01T05:56:11.453Z,66.07
2018-01-01T05:58:38.589Z,53.50
2018-01-01T06:01:05.715Z,59.83
2018-01-01T06:03:32.091Z,54.70
2018-01-01T06:05:58.472Z,56.00
2018-01-01T06:08:24.851Z,53.67
2018-01-01T06:10:52.074Z,53.07
2018-01-01T06:13:19.198Z,55.07
2018-01-01T06:15:45.587Z,53.50
2018-01-01T06:18:11.986Z,66.03
2018-01-01T06:20:38.361Z,62.80
2018-01-01T06:23:04.787Z,43.70
2018-01-01T06:25:31.158Z,61.37
2018-01-01T06:27:57.563Z,49.43
2018-01-01T06:30:23.955Z,64.30
2018-01-01T06:32:50.336Z,57.23
2018-01-01T06:35:16.724Z,47.87
2018-01-01T06:37:43.846Z,61.50
2018-01-01T06:40:10.289Z,63.97
2018-01-01T06:42:38.172Z,68.87
2018-01-01T06:45:05.314Z,65.90
2018-01-01T06:47:45.692Z,56.90
2018-01-01T06:50:12.871Z,70.33
2018-01-01T06:52:52.706Z,62.73
2018-01-01T06:55:19.070Z,51.60
2018-01-01T06:57:45.458Z,59.03
2018-01-01T07:00:11.843Z,49.47
2018-01-01T07:02:38.244Z,56.30
2018-01-01T07:05:04.610Z,45.90
2018-01-01T07:07:31.080Z,51.60
2018-01-01T07:09:58.194Z,50.13
2018-01-01T07:12:24.772Z,47.43
2018-01-01T07:14:51.153Z,46.77
2018-01-01T07:17:17.542Z,52.97
2018-01-01T07:19:43.909Z,45.83
2018-01-01T07:22:10.287Z,55.70
2018-01-01T07:24:37.390Z,57.40
2018-01-01T07:27:03.777Z,55.03
2018-01-01T07:29:30.165Z,72.40
2018-01-01T07:31:57.489Z,75.43
2018-01-01T07:34:23.886Z,62.73
2018-01-01T07:36:51.002Z,64.40
2018-01-01T07:39:17.381Z,52.97
2018-01-01T07:41:43.754Z,49.60
2018-01-01T07:44:10.130Z,50.80
2018-01-01T07:46:37.259Z,62.30
2018-01-01T07:49:03.684Z,373.27
2018-01-01T07:51:30.811Z,181.07
2018-01-01T07:53:57.186Z,139.63
2018-01-01T07:56:24.296Z,88.17
2018-01-01T07:58:50.709Z,31.70
2018-01-01T08:01:17.142Z,30.40
2018-01-01T08:03:43.518Z,28.50
2018-01-01T08:06:10.650Z,24.80
2018-01-01T08:08:37.034Z,19.60
2018-01-01T08:11:03.467Z,20.20
2018-01-01T08:13:29.840Z,18.77
2018-01-01T08:15:56.256Z,19.07
2018-01-01T08:18:23.387Z,19.77
2018-01-01T08:20:49.765Z,24.00
2018-01-01T08:23:16.909Z,14.63
2018-01-01T08:25:43.295Z,21.60
2018-01-01T08:28:09.671Z,23.40
2018-01-01T08:30:36.063Z,19.67
2018-01-01T08:33:02.444Z,35.90
2018-01-01T08:35:28.815Z,22.50
2018-01-01T08:37:55.250Z,22.17
2018-01-01T08:40:21.678Z,22.30
2018-01-01T08:42:48.804Z,14.87
2018-01-01T08:45:15.183Z,21.60
2018-01-01T08:47:41.606Z,15.67
2018-01-01T08:50:08.027Z,19.43
2018-01-01T08:52:34.426Z,17.20
2018-01-01T08:55:00.798Z,12.07
2018-01-01T08:57:27.903Z,16.10
2018-01-01T08:59:54.265Z,12.47
2018-01-01T09:02:21.389Z,15.43
2018-01-01T09:04:47.963Z,14.13
2018-01-01T09:07:14.359Z,14.70
2018-01-01T09:09:42.193Z,17.27
2018-01-01T09:12:08.713Z,19.30
2018-01-01T09:14:35.096Z,17.03
2018-01-01T09:17:01.563Z,13.67
2018-01-01T09:19:27.957Z,11.43
2018-01-01T09:21:54.327Z,13.43
2018-01-01T09:24:20.707Z,14.17
2018-01-01T09:26:48.559Z,17.87
2018-01-01T09:29:14.961Z,16.73
2018-01-01T09:31:41.377Z,11.70
2018-01-01T09:34:08.548Z,16.27
2018-01-01T09:36:34.940Z,13.77
2018-01-01T09:39:01.746Z,14.10
2018-01-01T09:41:28.144Z,15.37
2018-01-01T09:43:54.509Z,12.90
2018-01-01T09:46:20.897Z,12.77
2018-01-01T09:48:47.990Z,13.43
2018-01-01T09:51:14.353Z,11.23
2018-01-01T09:53:40.714Z,12.00
2018-01-01T09:56:07.826Z,11.57
2018-01-01T09:58:34.211Z,12.13
2018-01-01T10:01:00.602Z,12.37
2018-01-01T10:03:26.963Z,14.00
2018-01-01T10:05:53.375Z,12.90
2018-01-01T10:08:20.663Z,14.33
2018-01-01T10:10:47.055Z,15.77
2018-01-01T10:13:14.346Z,15.10
2018-01-01T10:15:40.713Z,15.47
2018-01-01T10:18:07.195Z,13.87
2018-01-01T10:20:33.617Z,16.83
2018-01-01T10:22:59.999Z,14.10
2018-01-01T10:25:26.358Z,15.93
2018-01-01T10:27:53.511Z,14.10
2018-01-01T10:30:20.669Z,19.33
2018-01-01T10:32:47.800Z,12.20
2018-01-01T10:35:15.659Z,15.40
2018-01-01T10:37:43.563Z,20.83
2018-01-01T10:40:09.993Z,15.33
2018-01-01T10:42:36.373Z,11.40
2018-01-01T10:45:02.770Z,12.63
2018-01-01T10:47:29.149Z,10.53
2018-01-01T10:49:55.533Z,15.60
2018-01-01T10:52:21.938Z,11.10
2018-01-01T10:54:48.315Z,10.83
2018-01-01T10:57:14.694Z,10.57
2018-01-01T10:59:41.827Z,9.30
2018-01-01T11:02:08.202Z,8.97
2018-01-01T11:04:35.312Z,9.97
2018-01-01T11:07:01.688Z,7.73
2018-01-01T11:09:28.217Z,9.50
2018-01-01T11:11:55.343Z,12.93
2018-01-01T11:14:21.782Z,9.63
2018-01-01T11:16:48.914Z,6.63
2018-01-01T11:19:15.351Z,11.70
2018-01-01T11:21:43.310Z,6.63
2018-01-01T11:24:09.715Z,5.67
2018-01-01T11:26:36.112Z,7.23
2018-01-01T11:29:02.518Z,6.60
2018-01-01T11:31:30.386Z,5.23
2018-01-01T11:33:56.795Z,8.20
2018-01-01T11:36:23.881Z,19.33
2018-01-01T11:38:51.019Z,10.83
2018-01-01T11:41:18.866Z,7.17
2018-01-01T11:43:45.243Z,9.50
2018-01-01T11:46:12.358Z,7.43
2018-01-01T11:48:40.227Z,10.50
2018-01-01T11:51:06.606Z,8.50
2018-01-01T11:53:32.967Z,7.00
2018-01-01T11:55:59.353Z,9.93
2018-01-01T11:58:25.754Z,5.43
2018-01-01T12:00:52.129Z,4.30
2018-01-01T12:03:19.236Z,5.63
2018-01-01T12:05:45.674Z,6.40
2018-01-01T12:08:12.076Z,5.73
2018-01-01T12:10:38.446Z,6.13
2018-01-01T12:13:05.562Z,8.07
2018-01-01T12:15:31.942Z,2.97
2018-01-01T12:17:59.046Z,3.20
2018-01-01T12:20:25.538Z,6.30
2018-01-01T12:22:51.978Z,7.07
2018-01-01T12:25:18.358Z,5.83
2018-01-01T12:27:45.478Z,8.63
2018-01-01T12:30:11.974Z,5.40
2018-01-01T12:32:39.084Z,6.10
2018-01-01T12:35:06.951Z,9.67
2018-01-01T12:37:34.821Z,6.60
2018-01-01T12:40:01.243Z,5.20
2018-01-01T12:42:27.622Z,6.97
2018-01-01T12:44:54.033Z,4.77
2018-01-01T12:47:20.491Z,2.53
2018-01-01T12:49:46.871Z,6.47
2018-01-01T12:52:13.258Z,12.90
2018-01-01T12:54:39.663Z,7.63
2018-01-01T12:57:06.081Z,7.93
2018-01-01T12:59:33.957Z,5.07
2018-01-01T13:02:01.100Z,4.30
2018-01-01T13:04:28.334Z,3.93
2018-01-01T13:06:54.704Z,7.53
2018-01-01T13:09:21.839Z,3.80
2018-01-01T13:11:49.322Z,4.40
2018-01-01T13:14:15.727Z,3.73
2018-01-01T13:16:43.584Z,4.67
2018-01-01T13:19:09.987Z,6.87
2018-01-01T13:21:36.386Z,4.47
2018-01-01T13:24:02.886Z,5.20
2018-01-01T13:26:30.750Z,9.63
2018-01-01T13:28:58.599Z,5.33
2018-01-01T13:31:24.984Z,7.83
2018-01-01T13:33:51.390Z,1.90
2018-01-01T13:36:17.796Z,1.93
2018-01-01T13:38:45.763Z,3.50
2018-01-01T13:41:12.193Z,7.73
2018-01-01T13:43:38.618Z,4.27
2018-01-01T13:46:04.974Z,10.10
2018-01-01T13:48:32.114Z,7.40
2018-01-01T13:50:58.478Z,3.27
2018-01-01T13:53:25.671Z,3.67
2018-01-01T13:55:52.097Z,3.47
2018-01-01T13:58:18.480Z,3.37
2018-01-01T14:00:44.870Z,5.97
2018-01-01T14:03:11.294Z,4.80
2018-01-01T14:05:37.674Z,4.03
2018-01-01T14:08:04.038Z,2.50
2018-01-01T14:10:30.445Z,4.23
2018-01-01T14:12:56.820Z,4.37
2018-01-01T14:15:23.187Z,2.50
2018-01-01T14:17:49.579Z,8.23
2018-01-01T14:20:15.981Z,5.40
2018-01-01T14:22:43.104Z,2.63
2018-01-01T14:25:09.966Z,13.57
2018-01-01T14:27:37.090Z,2.93
2018-01-01T14:30:03.522Z,2.00
2018-01-01T14:32:29.910Z,5.27
2018-01-01T14:34:56.303Z,5.90
2018-01-01T14:37:23.499Z,4.23
2018-01-01T14:39:49.895Z,2.40
2018-01-01T14:42:16.322Z,6.77
2018-01-01T14:44:42.774Z,4.10
2018-01-01T14:47:09.169Z,7.60
2018-01-01T14:49:35.561Z,5.33
2018-01-01T14:52:01.961Z,5.80
2018-01-01T14:54:28.330Z,4.83
2018-01-01T14:56:54.728Z,2.17
2018-01-01T14:59:21.858Z,4.60
2018-01-01T15:01:49.710Z,4.67
2018-01-01T15:04:16.103Z,6.40
2018-01-01T15:06:42.498Z,3.10
2018-01-01T15:09:09.624Z,2.97
2018-01-01T15:11:35.996Z,6.03
2018-01-01T15:14:03.162Z,2.20
2018-01-01T15:16:29.539Z,5.77
2018-01-01T15:18:55.923Z,2.53
2018-01-01T15:21:22.286Z,2.33
2018-01-01T15:23:48.680Z,2.57
2018-01-01T15:26:15.099Z,3.40
2018-01-01T15:28:42.220Z,4.37
2018-01-01T15:31:08.670Z,3.27
2018-01-01T15:33:35.039Z,1.83
2018-01-01T15:36:01.427Z,3.93
2018-01-01T15:38:29.344Z,7.50
2018-01-01T15:40:56.590Z,5.00
2018-01-01T15:43:23.019Z,4.83
2018-01-01T15:45:49.397Z,10.13
2018-01-01T15:48:15.904Z,9.53
2018-01-01T15:50:42.337Z,3.50
2018-01-01T15:53:08.739Z,4.50
2018-01-01T15:55:35.861Z,3.70
2018-01-01T15:58:03.725Z,4.33
2018-01-01T16:00:31.629Z,9.83
2018-01-01T16:02:58.026Z,10.33
2018-01-01T16:05:24.439Z,8.70
2018-01-01T16:07:52.310Z,8.50
2018-01-01T16:10:18.719Z,7.93
2018-01-01T16:12:45.175Z,6.33
2018-01-01T16:15:11.601Z,10.07
2018-01-01T16:17:37.970Z,14.20
2018-01-01T16:20:05.090Z,9.60
2018-01-01T16:22:31.469Z,11.90
2018-01-01T16:24:57.879Z,14.00
2018-01-01T16:27:24.273Z,15.73
2018-01-01T16:29:50.678Z,8.47
2018-01-01T16:32:17.104Z,10.70
2018-01-01T16:34:43.532Z,6.03
2018-01-01T16:37:09.995Z,13.53
2018-01-01T16:39:37.168Z,8.93
2018-01-01T16:42:03.596Z,11.70
2018-01-01T16:44:31.522Z,21.30
2018-01-01T16:46:57.958Z,13.23
2018-01-01T16:49:24.406Z,4.00
2018-01-01T16:51:50.786Z,6.10
2018-01-01T16:54:17.984Z,6.90
2018-01-01T16:56:44.407Z,8.53
2018-01-01T16:59:10.790Z,6.77
2018-01-01T17:01:37.243Z,12.83
2018-01-01T17:04:04.362Z,29.97
2018-01-01T17:06:30.768Z,23.57
2018-01-01T17:08:57.152Z,19.93
2018-01-01T17:11:25.014Z,17.83
2018-01-01T17:13:52.130Z,11.67
2018-01-01T17:16:18.578Z,9.10
2018-01-01T17:18:45.717Z,13.40
2018-01-01T17:21:12.095Z,10.13
2018-01-01T17:23:39.235Z,5.90
2018-01-01T17:26:06.365Z,10.33
2018-01-01T17:28:32.794Z,9.47
2018-01-01T17:30:59.303Z,11.10
2018-01-01T17:33:25.765Z,13.97
2018-01-01T17:35:52.217Z,28.40
2018-01-01T17:38:19.402Z,15.47
2018-01-01T17:40:46.864Z,89.93
2018-01-01T17:43:13.359Z,42.50
2018-01-01T17:45:39.761Z,14.27
2018-01-01T17:48:06.207Z,10.67
2018-01-01T17:50:32.642Z,10.17
2018-01-01T17:52:59.062Z,4.30
2018-01-01T17:55:25.590Z,13.40
2018-01-01T17:57:52.023Z,17.07
2018-01-01T18:00:18.452Z,10.63
2018-01-01T18:02:44.869Z,20.27
2018-01-01T18:05:11.284Z,17.70
2018-01-01T18:07:37.857Z,8.50
2018-01-01T18:10:04.272Z,30.97
2018-01-01T18:12:30.660Z,24.70
2018-01-01T18:14:57.808Z,16.30
2018-01-01T18:17:24.190Z,8.47
2018-01-01T18:19:50.600Z,5.03
2018-01-01T18:22:17.034Z,6.70
2018-01-01T18:24:43.453Z,4.13
2018-01-01T18:27:10.594Z,8.83
2018-01-01T18:29:37.718Z,5.30
2018-01-01T18:32:04.105Z,14.10
2018-01-01T18:34:30.499Z,20.43
2018-01-01T18:36:57.678Z,24.10
2018-01-01T18:39:24.071Z,16.73
2018-01-01T18:41:51.214Z,13.67
2018-01-01T18:44:17.637Z,11.23
2018-01-01T18:46:44.091Z,34.60
2018-01-01T18:49:11.218Z,14.20
2018-01-01T18:51:37.684Z,11.90
2018-01-01T18:54:04.888Z,12.80
2018-01-01T18:56:31.472Z,9.57
2018-01-01T18:58:58.808Z,22.30
2018-01-01T19:01:25.179Z,9.37
2018-01-01T19:03:52.902Z,11.07
2018-01-01T19:06:20.056Z,5.20
2018-01-01T19:08:46.775Z,6.07
2018-01-01T19:11:13.166Z,3.73
2018-01-01T19:13:39.568Z,7.03
2018-01-01T19:16:06.704Z,15.40
2018-01-01T19:18:33.090Z,14.03
2018-01-01T19:20:59.497Z,8.03
2018-01-01T19:23:25.944Z,14.77
2018-01-01T19:25:53.184Z,16.43
2018-01-01T19:28:19.580Z,10.53
2018-01-01T19:30:46.011Z,9.40
2018-01-01T19:33:12.417Z,9.57
2018-01-01T19:35:38.876Z,10.90
2018-01-01T19:38:07.567Z,8.53
2018-01-01T19:40:33.950Z,22.07
2018-01-01T19:43:00.382Z,14.73
2018-01-01T19:45:26.796Z,18.00
2018-01-01T19:47:53.947Z,15.30
2018-01-01T19:50:20.353Z,12.00
2018-01-01T19:52:46.738Z,15.57
2018-01-01T19:55:13.125Z,10.77
2018-01-01T19:57:40.246Z,12.57
2018-01-01T20:00:06.730Z,58.63
2018-01-01T20:02:33.104Z,27.50
2018-01-01T20:04:59.532Z,13.93
2018-01-01T20:07:25.948Z,10.73
2018-01-01T20:09:52.353Z,11.50
2018-01-01T20:12:19.610Z,16.30
2018-01-01T20:14:46.067Z,16.60
2018-01-01T20:17:12.600Z,42.20
2018-01-01T20:19:39.003Z,101.27
2018-01-01T20:22:05.396Z,102.80
2018-01-01T20:24:31.797Z,75.33
2018-01-01T20:26:58.161Z,39.10
2018-01-01T20:29:24.553Z,32.10
2018-01-01T20:31:50.942Z,31.67
2018-01-01T20:34:18.084Z,33.60
2018-01-01T20:36:44.477Z,24.40
2018-01-01T20:39:10.934Z,26.27
2018-01-01T20:41:37.326Z,29.00
2018-01-01T20:44:03.711Z,22.33
2018-01-01T20:46:30.092Z,17.57
2018-01-01T20:48:56.468Z,23.63
2018-01-01T20:51:22.870Z,28.93
2018-01-01T20:53:49.295Z,30.33
2018-01-01T20:56:15.716Z,26.80
2018-01-01T20:58:42.156Z,35.57
2018-01-01T21:01:08.549Z,58.70
2018-01-01T21:03:35.678Z,58.83
2018-01-01T21:06:02.091Z,49.10
2018-01-01T21:08:28.534Z,33.10
2018-01-01T21:10:54.960Z,29.23
2018-01-01T21:13:21.365Z,27.33
2018-01-01T21:15:47.761Z,17.10
2018-01-01T21:18:14.894Z,33.20
2018-01-01T21:20:41.271Z,20.63
2018-01-01T21:23:07.659Z,18.23
2018-01-01T21:25:36.230Z,14.93
2018-01-01T21:28:02.685Z,16.03
2018-01-01T21:30:29.938Z,7.20
2018-01-01T21:32:57.305Z,9.73
2018-01-01T21:35:24.947Z,13.63
2018-01-01T21:37:51.337Z,12.07
2018-01-01T21:40:17.746Z,11.30
2018-01-01T21:42:44.182Z,14.33
2018-01-01T21:45:10.578Z,13.43
2018-01-01T21:47:36.942Z,13.60
2018-01-01T21:50:03.343Z,10.30
2018-01-01T21:52:30.471Z,12.45
2018-01-01T21:54:57.363Z,13.00
2018-01-01T21:57:23.753Z,16.90
2018-01-01T21:59:50.184Z,16.07
2018-01-01T22:02:16.580Z,15.03
2018-01-01T22:04:42.995Z,14.70
2018-01-01T22:07:10.145Z,12.40
2018-01-01T22:09:36.678Z,12.27
2018-01-01T22:12:03.825Z,17.50
2018-01-01T22:14:30.227Z,20.87
2018-01-01T22:16:56.616Z,20.50
2018-01-01T22:19:22.995Z,16.30
2018-01-01T22:21:49.425Z,26.80
2018-01-01T22:24:17.389Z,17.67
2018-01-01T22:26:44.533Z,17.43
2018-01-01T22:29:10.925Z,19.67
2018-01-01T22:31:37.418Z,29.12
2018-01-01T22:34:04.542Z,14.00
2018-01-01T22:36:30.974Z,17.80
2018-01-01T22:38:57.368Z,14.85
2018-01-01T22:41:23.747Z,17.90
2018-01-01T22:43:50.169Z,18.27
2018-01-01T22:46:16.571Z,15.18
2018-01-01T22:48:43.700Z,19.17
2018-01-01T22:51:10.097Z,15.98
2018-01-01T22:53:37.275Z,12.80
2018-01-01T22:56:03.664Z,22.48
2018-01-01T22:58:30.043Z,20.60
2018-01-01T23:00:57.192Z,23.23
2018-01-01T23:03:23.593Z,35.87
2018-01-01T23:05:50.039Z,38.63
2018-01-01T23:08:17.208Z,19.73
2018-01-01T23:10:43.604Z,25.70
2018-01-01T23:13:09.997Z,16.07
2018-01-01T23:15:36.379Z,14.10
2018-01-01T23:18:04.302Z,19.73
2018-01-01T23:20:30.713Z,12.93
2018-01-01T23:22:57.086Z,17.33
2018-01-01T23:25:24.242Z,14.60
2018-01-01T23:27:50.624Z,18.00
2018-01-01T23:30:17.261Z,14.55
2018-01-01T23:32:43.661Z,12.32
2018-01-01T23:35:10.837Z,245.68
2018-01-01T23:37:37.250Z,77.15
2018-01-01T23:40:04.370Z,31.33
2018-01-01T23:42:30.807Z,31.62
2018-01-01T23:44:57.214Z,443.63
2018-01-01T23:47:23.598Z,153.80
2018-01-01T23:49:50.725Z,149.90
2018-01-01T23:52:17.140Z,60.38
2018-01-01T23:54:43.546Z,18.42
2018-01-01T23:57:09.961Z,22.20
2018-01-01T23:59:36.363Z,34.67
